• Join FlightAware (Why Join?)
  • Login
  • US Flag 
02:18AM EDT


 

Airport Tracker/Info


-or-


 

Live Flight TrackerFlight Track Log ✈ N690TW ✈ 08-Nov-2013 ✈ KBJC - KGJT

Flight Track Log - Related Links

Times and Time Zones

All times are in EST time to prevent confusion due to time zone crossing. See the N690TW flight status page for this flight to view local times or setup timezone preferences in your user account.

Time Position Orientation Groundspeed Altitude Reporting Facility
EST Latitude Longitude Course Direction KTS MPH feet Rate Location/Type
10:07AM 39.9333 -105.1333 360° North 158 182 7,200  Level Denver TRACON
10:08AM 39.9667 -105.1333 360° North 154 177 9,100 1,980 Climbing Denver TRACON
10:09AM 39.9786 -105.1644 297° West 134 154 10,700 2,520 Climbing Denver Center
10:10AM 39.9614 -105.2042 241° Southwest 128 147 13,800 2,400 Climbing Denver Center
10:11AM 39.9414 -105.2486 240° Southwest 142 163 15,600 1,020 Climbing Denver Center
10:12AM 39.9147 -105.3133 242° Southwest 192 221 16,000 720 Climbing Denver Center
10:13AM 39.8794 -105.3750 233° Southwest 209 241 17,100 1,320 Climbing Denver Center
10:14AM 39.8478 -105.4253 231° Southwest 183 211 18,800 1,320 Climbing Denver Center
10:15AM 39.8131 -105.4833 232° Southwest 191 220 19,900 1,200 Climbing Denver Center
10:16AM 39.7836 -105.5369 234° Southwest 182 209 21,300 1,380 Climbing Denver Center
10:17AM 39.7725 -105.5964 256° West 168 193 22,800 1,500 Climbing Denver Center
10:18AM 39.7586 -105.6606 254° West 170 196 24,400 1,440 Climbing Denver Center
10:19AM 39.7447 -105.7253 254° West 185 213 25,800 1,260 Climbing Denver Center
10:20AM 39.7311 -105.7914 255° West 190 219 27,000 900 Climbing Denver Center
10:21AM 39.7189 -105.8544 256° West 181 208 27,700 480 Climbing Denver Center
10:22AM 39.7139 -105.9250 265° West 194 223 28,000 120 Climbing Denver Center
10:23AM 39.7069 -106.0097 264° West 233 268 28,000  Level Denver Center
10:24AM 39.7039 -106.0914 267° West 228 262 28,000  Level Denver Center
10:25AM 39.6983 -106.1936 266° West 239 275 28,000 -120 Level Denver Center
10:26AM 39.6914 -106.2817 264° West 246 283 27,800 -540 Descending Denver Center
10:27AM 39.6872 -106.3586 266° West 216 249 27,000 -420 Descending Denver Center
10:28AM 39.6744 -106.4236 256° West 202 232 27,000  Level Denver Center
10:29AM 39.6558 -106.5000 252° West 220 253 27,000 -360 Level Denver Center
10:30AM 39.6322 -106.5964 252° West 236 272 26,300 -540 Descending Denver Center
10:31AM 39.6125 -106.6753 252° West 240 276 26,000 -180 Descending Denver Center
10:32AM 39.5900 -106.7647 252° West 235 270 26,000  Level Denver Center
10:33AM 39.5708 -106.8411 252° West 233 268 26,000  Level Denver Center
10:34AM 39.5458 -106.9317 250° West 241 277 26,000  Level Denver Center
10:35AM 39.5275 -107.0100 253° West 239 275 26,000  Level Denver Center
10:36AM 39.5039 -107.1019 252° West 241 277 26,000  Level Denver Center
10:37AM 39.4836 -107.1833 252° West 246 283 26,000  Level Denver Center
10:38AM 39.4619 -107.2631 251° West 245 282 26,000  Level Denver Center
10:40AM 39.4386 -107.3558 252° West 244 281 26,000 -120 Level Denver Center
10:41AM 39.4175 -107.4383 252° West 249 287 25,800 -720 Descending Denver Center
10:42AM 39.3942 -107.5319 252° West 246 283 24,600 -1,140 Descending Denver Center
10:43AM 39.3742 -107.6125 252° West 245 282 23,500 -1,140 Descending Denver Center
10:44AM 39.3503 -107.7039 251° West 242 278 22,300 -1,080 Descending Denver Center
10:45AM 39.3283 -107.7861 251° West 249 287 21,300 -1,140 Descending Denver Center
10:46AM 39.3017 -107.8875 251° West 263 303 20,000 -1,200 Descending Denver Center
10:47AM 39.2789 -107.9739 251° West 257 296 18,900 -1,260 Descending Denver Center
10:48AM 39.2581 -108.0689 254° West 257 296 17,400 -1,860 Descending Denver Center
10:49AM 39.2483 -108.1581 262° West 253 291 15,100 -2,280 Descending Denver Center
10:50AM 39.2378 -108.2533 262° West 250 288 12,800 -1,980 Descending Denver Center
10:51AM 39.2075 -108.3308 243° Southwest 245 282 11,100 -1,800 Descending Denver Center
10:52AM 39.1772 -108.4067 243° Southwest 232 267 9,100 -1,800 Descending Denver Center
10:53AM 39.1539 -108.4708 245° Southwest 199 229 7,400 -1,440 Descending Denver Center
10:54AM 39.1722 -108.5386 289° West 192 221 6,200 -1,080 Descending Denver Center
10:55AM 39.1403 -108.5547 201° Southwest 149 171 5,200 -720 Descending Denver Center
10:56AM 39.1214 -108.5222 127° Southeast 129 148 4,800 -420 Descending Denver Center
10:58AM 39.1167 -108.5167 90° East  Level FlightAware Approximate
11:05AM 39.1224 -108.5267 90° East  Level Estimated
11:06AM 39.1224 -108.5267 90° East  Level Estimated